createdAt,value
2022-11-15T00:00:17.896Z,10.14
2022-11-15T00:01:17.840Z,10.17
2022-11-15T00:02:17.863Z,10.17
2022-11-15T00:03:17.808Z,10.17
2022-11-15T00:04:17.788Z,10.17
2022-11-15T00:05:17.757Z,10.16
2022-11-15T00:06:17.763Z,10.14
2022-11-15T00:07:40.416Z,10.09
2022-11-15T00:08:17.917Z,10.10
2022-11-15T00:09:17.707Z,10.12
2022-11-15T00:10:17.766Z,10.10
2022-11-15T00:11:17.705Z,10.09
2022-11-15T00:12:17.678Z,10.09
2022-11-15T00:13:17.670Z,10.10
2022-11-15T00:14:17.689Z,10.09
2022-11-15T00:15:17.629Z,10.09
2022-11-15T00:16:17.629Z,10.12
2022-11-15T00:17:17.646Z,10.14
2022-11-15T00:18:17.594Z,10.12
2022-11-15T00:19:17.597Z,10.12
2022-11-15T00:20:17.597Z,10.12
2022-11-15T00:21:17.541Z,10.14
2022-11-15T00:22:17.548Z,10.14
2022-11-15T00:23:17.567Z,10.14
2022-11-15T00:24:17.530Z,10.12
2022-11-15T00:25:17.521Z,10.12
2022-11-15T00:26:17.534Z,10.12
2022-11-15T00:27:17.530Z,10.14
2022-11-15T00:28:17.491Z,10.14
2022-11-15T00:29:17.457Z,10.16
2022-11-15T00:30:17.467Z,10.16
2022-11-15T00:31:17.537Z,10.10
2022-11-15T00:32:17.418Z,10.09
2022-11-15T00:33:17.398Z,10.10
2022-11-15T00:34:17.390Z,10.09
2022-11-15T00:35:17.359Z,10.12
2022-11-15T00:36:17.390Z,10.12
2022-11-15T00:37:17.367Z,10.12
2022-11-15T00:38:17.328Z,10.12
2022-11-15T00:39:17.303Z,10.12
2022-11-15T00:40:17.316Z,10.12
2022-11-15T00:41:17.316Z,10.09
2022-11-15T00:42:17.282Z,10.10
2022-11-15T00:43:17.271Z,10.10
2022-11-15T00:44:17.253Z,10.10
2022-11-15T00:45:17.227Z,10.12
2022-11-15T00:46:17.266Z,10.12
2022-11-15T00:47:17.302Z,10.14
2022-11-15T00:48:17.200Z,10.14
2022-11-15T00:49:17.200Z,10.09
2022-11-15T00:50:17.177Z,10.12
2022-11-15T00:51:17.147Z,10.12
2022-11-15T00:52:17.216Z,10.14
2022-11-15T00:53:17.116Z,10.12
2022-11-15T00:54:17.117Z,10.16
2022-11-15T00:55:17.096Z,10.12
2022-11-15T00:56:17.095Z,10.12
2022-11-15T00:57:17.089Z,10.12
2022-11-15T00:58:17.195Z,10.10
2022-11-15T00:59:17.050Z,10.10
2022-11-15T01:00:17.069Z,10.10
2022-11-15T01:01:17.055Z,10.12
2022-11-15T01:02:17.245Z,10.10
2022-11-15T01:03:17.008Z,10.12
2022-11-15T01:04:17.006Z,10.09
2022-11-15T01:05:16.958Z,10.10
2022-11-15T01:06:17.075Z,10.09
2022-11-15T01:07:17.091Z,10.09
2022-11-15T01:08:16.991Z,10.09
2022-11-15T01:09:16.907Z,10.09
2022-11-15T01:10:17.052Z,10.09
2022-11-15T01:11:16.890Z,10.09
2022-11-15T01:12:16.895Z,10.09
2022-11-15T01:13:16.893Z,10.08
2022-11-15T01:14:20.255Z,10.09
2022-11-15T01:15:16.852Z,10.06
2022-11-15T01:16:16.825Z,10.06
2022-11-15T01:17:16.815Z,10.01
2022-11-15T01:18:16.838Z,10.01
2022-11-15T01:19:16.768Z,10.01
2022-11-15T01:20:16.800Z,9.98
2022-11-15T01:21:16.742Z,9.98
2022-11-15T01:22:16.747Z,9.98
2022-11-15T01:23:16.731Z,10.01
2022-11-15T01:24:16.850Z,10.02
2022-11-15T01:25:16.690Z,10.03
2022-11-15T01:26:16.780Z,10.03
2022-11-15T01:27:16.681Z,10.02
2022-11-15T01:28:16.769Z,10.03
2022-11-15T01:29:16.681Z,10.05
2022-11-15T01:30:16.666Z,10.06
2022-11-15T01:31:16.627Z,10.06
2022-11-15T01:32:16.732Z,10.06
2022-11-15T01:33:16.595Z,10.05
2022-11-15T01:34:16.632Z,10.03
2022-11-15T01:35:16.573Z,10.05
2022-11-15T01:36:16.565Z,10.05
2022-11-15T01:37:16.653Z,10.03
2022-11-15T01:38:16.550Z,10.03
2022-11-15T01:39:16.511Z,10.06
2022-11-15T01:40:16.554Z,10.06
2022-11-15T01:41:16.497Z,10.06
2022-11-15T01:42:16.512Z,10.09
2022-11-15T01:43:16.453Z,10.08
2022-11-15T01:44:16.561Z,10.06
2022-11-15T01:45:16.467Z,10.05
2022-11-15T01:46:16.582Z,10.05
2022-11-15T01:47:16.403Z,10.05
2022-11-15T01:48:16.544Z,10.05
2022-11-15T01:49:16.376Z,10.06
2022-11-15T01:50:16.506Z,10.06
2022-11-15T01:51:16.372Z,10.06
2022-11-15T01:52:16.383Z,10.05
2022-11-15T01:53:16.352Z,10.03
2022-11-15T01:54:16.324Z,10.08
2022-11-15T01:55:16.322Z,10.05
2022-11-15T01:56:16.319Z,10.05
2022-11-15T01:57:16.275Z,10.06
2022-11-15T01:58:16.294Z,10.05
2022-11-15T01:59:16.239Z,10.05
2022-11-15T02:00:16.246Z,10.03
2022-11-15T02:01:16.348Z,10.03
2022-11-15T02:02:16.231Z,10.02
2022-11-15T02:03:16.196Z,10.02
2022-11-15T02:04:16.210Z,10.02
2022-11-15T02:05:16.187Z,10.01
2022-11-15T02:06:16.198Z,10.02
2022-11-15T02:07:16.166Z,10.03
2022-11-15T02:08:16.148Z,10.03
2022-11-15T02:09:16.126Z,10.03
2022-11-15T02:10:16.112Z,10.02
2022-11-15T02:11:16.123Z,10.03
2022-11-15T02:12:16.116Z,10.03
2022-11-15T02:13:16.057Z,10.01
2022-11-15T02:14:16.071Z,9.94
2022-11-15T02:15:16.035Z,9.94
2022-11-15T02:16:16.027Z,9.91
2022-11-15T02:17:16.032Z,9.91
2022-11-15T02:18:16.071Z,9.91
2022-11-15T02:19:15.986Z,9.94
2022-11-15T02:20:16.046Z,9.94
2022-11-15T02:21:15.960Z,9.94
2022-11-15T02:22:15.999Z,9.98
2022-11-15T02:23:16.037Z,9.96
2022-11-15T02:24:15.962Z,9.98
2022-11-15T02:25:15.900Z,9.98
2022-11-15T02:26:15.900Z,9.96
2022-11-15T02:27:15.956Z,9.98
2022-11-15T02:28:15.919Z,9.96
2022-11-15T02:29:15.873Z,9.96
2022-11-15T02:30:15.929Z,9.99
2022-11-15T02:31:15.844Z,9.96
2022-11-15T02:32:15.823Z,9.94
2022-11-15T02:33:15.858Z,9.96
2022-11-15T02:34:15.828Z,9.98
2022-11-15T02:35:15.774Z,9.98
2022-11-15T02:36:15.890Z,9.96
2022-11-15T02:37:15.750Z,9.94
2022-11-15T02:38:15.794Z,9.93
2022-11-15T02:39:15.721Z,9.94
2022-11-15T02:40:15.721Z,9.90
2022-11-15T02:41:15.712Z,9.87
2022-11-15T02:42:15.684Z,9.85
2022-11-15T02:43:15.657Z,9.85
2022-11-15T02:44:15.741Z,9.83
2022-11-15T02:45:15.626Z,9.81
2022-11-15T02:46:15.705Z,9.81
2022-11-15T02:47:15.662Z,9.80
2022-11-15T02:48:15.608Z,9.83
2022-11-15T02:49:15.632Z,9.83
2022-11-15T02:50:15.592Z,9.83
2022-11-15T02:51:15.585Z,9.84
2022-11-15T02:52:15.551Z,9.84
2022-11-15T02:53:15.529Z,9.85
2022-11-15T02:54:15.586Z,9.84
2022-11-15T02:55:15.504Z,9.85
2022-11-15T02:56:15.603Z,9.88
2022-11-15T02:57:15.488Z,9.85
2022-11-15T02:58:15.515Z,9.85
2022-11-15T02:59:15.454Z,9.87
2022-11-15T03:00:15.473Z,9.87
2022-11-15T03:01:15.566Z,9.87
2022-11-15T03:02:15.433Z,9.88
2022-11-15T03:03:15.445Z,9.87
2022-11-15T03:04:15.397Z,9.87
2022-11-15T03:05:15.429Z,9.88
2022-11-15T03:06:15.382Z,9.85
2022-11-15T03:07:15.477Z,9.85
2022-11-15T03:08:15.348Z,9.85
2022-11-15T03:09:15.403Z,9.85
2022-11-15T03:10:15.354Z,9.87
2022-11-15T03:11:15.364Z,9.85
2022-11-15T03:12:15.311Z,9.84
2022-11-15T03:13:15.295Z,9.83
2022-11-15T03:14:15.282Z,9.83
2022-11-15T03:15:15.260Z,9.83
2022-11-15T03:16:15.302Z,9.83
2022-11-15T03:17:15.211Z,9.81
2022-11-15T03:18:15.279Z,9.83
2022-11-15T03:19:15.194Z,9.81
2022-11-15T03:20:15.208Z,9.83
2022-11-15T03:21:15.222Z,9.80
2022-11-15T03:22:15.170Z,9.81
2022-11-15T03:23:15.137Z,9.81
2022-11-15T03:24:15.270Z,9.81
2022-11-15T03:25:15.118Z,9.80
2022-11-15T03:26:15.139Z,9.80
2022-11-15T03:27:15.076Z,9.81
2022-11-15T03:28:15.084Z,9.80
2022-11-15T03:29:15.120Z,9.81
2022-11-15T03:30:15.073Z,9.81
2022-11-15T03:31:15.035Z,9.80
2022-11-15T03:32:15.060Z,9.81
2022-11-15T03:33:15.025Z,9.81
2022-11-15T03:34:15.011Z,9.78
2022-11-15T03:35:14.984Z,9.80
2022-11-15T03:36:14.977Z,9.77
2022-11-15T03:37:15.130Z,9.78
2022-11-15T03:38:15.025Z,9.78
2022-11-15T03:39:20.256Z,9.78
2022-11-15T03:40:15.071Z,9.78
2022-11-15T03:41:14.900Z,9.75
2022-11-15T03:42:14.935Z,9.75
2022-11-15T03:43:14.895Z,9.73
2022-11-15T03:44:14.863Z,9.72
2022-11-15T03:45:14.846Z,9.72
2022-11-15T03:46:14.833Z,9.69
2022-11-15T03:47:14.832Z,9.69
2022-11-15T03:48:14.857Z,9.69
2022-11-15T03:49:14.783Z,9.66
2022-11-15T03:50:14.786Z,9.66
2022-11-15T03:51:14.773Z,9.67
2022-11-15T03:52:14.761Z,9.66
2022-11-15T03:53:14.760Z,9.65
2022-11-15T03:54:14.741Z,9.65
2022-11-15T03:55:14.800Z,9.63
2022-11-15T03:56:14.708Z,9.62
2022-11-15T03:57:14.729Z,9.55
2022-11-15T03:58:14.721Z,9.54
2022-11-15T03:59:14.691Z,9.52
2022-11-15T04:00:14.654Z,9.51
2022-11-15T04:01:14.810Z,9.51
2022-11-15T04:02:14.643Z,9.52
2022-11-15T04:03:14.635Z,9.51
2022-11-15T04:04:14.629Z,9.47
2022-11-15T04:05:14.591Z,9.47
2022-11-15T04:06:14.580Z,9.44
2022-11-15T04:07:14.582Z,9.42
2022-11-15T04:08:14.545Z,9.40
2022-11-15T04:09:14.629Z,9.36
2022-11-15T04:10:14.550Z,9.36
2022-11-15T04:11:14.501Z,9.37
2022-11-15T04:12:14.503Z,9.40
2022-11-15T04:13:14.476Z,9.42
2022-11-15T04:14:14.520Z,9.45
2022-11-15T04:15:14.447Z,9.50
2022-11-15T04:16:14.564Z,9.51
2022-11-15T04:17:14.431Z,9.51
2022-11-15T04:18:14.414Z,9.57
2022-11-15T04:19:14.398Z,9.62
2022-11-15T04:20:14.530Z,9.63
2022-11-15T04:21:14.381Z,9.65
2022-11-15T04:22:14.358Z,9.65
2022-11-15T04:23:14.406Z,9.66
2022-11-15T04:24:14.368Z,9.66
2022-11-15T04:25:14.360Z,9.69
2022-11-15T04:26:14.358Z,9.70
2022-11-15T04:27:14.280Z,9.69
2022-11-15T04:28:14.409Z,9.67
2022-11-15T04:29:14.271Z,9.67
2022-11-15T04:30:14.288Z,9.67
2022-11-15T04:31:14.314Z,9.67
2022-11-15T04:32:14.249Z,9.66
2022-11-15T04:33:14.210Z,9.63
2022-11-15T04:34:14.347Z,9.65
2022-11-15T04:35:14.183Z,9.65
2022-11-15T04:36:14.222Z,9.65
2022-11-15T04:37:14.159Z,9.66
2022-11-15T04:38:14.238Z,9.66
2022-11-15T04:39:14.152Z,9.65
2022-11-15T04:40:14.137Z,9.66
2022-11-15T04:41:14.126Z,9.69
2022-11-15T04:42:14.134Z,9.69
2022-11-15T04:43:14.087Z,9.67
2022-11-15T04:44:14.073Z,9.69
2022-11-15T04:45:14.065Z,9.69
2022-11-15T04:46:14.164Z,9.67
2022-11-15T04:47:14.037Z,9.69
2022-11-15T04:48:14.136Z,9.69
2022-11-15T04:49:14.008Z,9.69
2022-11-15T04:50:13.976Z,9.66
2022-11-15T04:51:14.059Z,9.67
2022-11-15T04:52:13.993Z,9.69
2022-11-15T04:53:13.962Z,9.67
2022-11-15T04:54:14.005Z,9.67
2022-11-15T04:55:13.937Z,9.66
2022-11-15T04:56:13.913Z,9.65
2022-11-15T04:57:13.966Z,9.65
2022-11-15T04:58:13.877Z,9.65
2022-11-15T04:59:13.880Z,9.62
2022-11-15T05:00:13.855Z,9.62
2022-11-15T05:01:13.908Z,9.57
2022-11-15T05:02:13.863Z,9.59
2022-11-15T05:03:13.823Z,9.59
2022-11-15T05:04:13.859Z,9.59
2022-11-15T05:05:13.796Z,9.57
2022-11-15T05:06:13.772Z,9.59
2022-11-15T05:07:13.836Z,9.59
2022-11-15T05:08:13.781Z,9.59
2022-11-15T05:09:13.764Z,9.59
2022-11-15T05:10:13.727Z,9.57
2022-11-15T05:11:13.718Z,9.57
2022-11-15T05:12:13.765Z,9.59
2022-11-15T05:13:13.726Z,9.59
2022-11-15T05:14:13.656Z,9.59
2022-11-15T05:15:13.676Z,9.60
2022-11-15T05:16:13.714Z,9.60
2022-11-15T05:17:13.642Z,9.62
2022-11-15T05:18:13.636Z,9.59
2022-11-15T05:19:13.668Z,9.55
2022-11-15T05:20:13.586Z,9.57
2022-11-15T05:21:13.599Z,9.57
2022-11-15T05:22:13.647Z,9.55
2022-11-15T05:23:13.559Z,9.55
2022-11-15T05:24:13.593Z,9.51
2022-11-15T05:25:13.549Z,9.50
2022-11-15T05:26:13.510Z,9.50
2022-11-15T05:27:13.551Z,9.48
2022-11-15T05:28:13.488Z,9.50
2022-11-15T05:29:13.504Z,9.48
2022-11-15T05:30:13.469Z,9.51
2022-11-15T05:31:13.497Z,9.48
2022-11-15T05:32:13.466Z,9.50
2022-11-15T05:33:13.471Z,9.50
2022-11-15T05:34:13.430Z,9.50
2022-11-15T05:35:13.400Z,9.51
2022-11-15T05:36:13.385Z,9.48
2022-11-15T05:37:13.373Z,9.50
2022-11-15T05:38:13.347Z,9.51
2022-11-15T05:39:13.405Z,9.50
2022-11-15T05:40:13.362Z,9.48
2022-11-15T05:41:13.425Z,9.48
2022-11-15T05:42:13.321Z,9.48
2022-11-15T05:43:13.313Z,9.50
2022-11-15T05:44:13.288Z,9.50
2022-11-15T05:45:13.323Z,9.52
2022-11-15T05:46:13.267Z,9.51
2022-11-15T05:47:13.241Z,9.51
2022-11-15T05:48:13.235Z,9.50
2022-11-15T05:49:13.272Z,9.51
2022-11-15T05:50:13.242Z,9.50
2022-11-15T05:51:13.192Z,9.50
2022-11-15T05:52:13.163Z,9.48
2022-11-15T05:53:13.198Z,9.48
2022-11-15T05:54:13.244Z,9.44
2022-11-15T05:55:13.151Z,9.47
2022-11-15T05:56:13.184Z,9.44
2022-11-15T05:57:13.118Z,9.42
2022-11-15T05:58:13.129Z,9.44
2022-11-15T05:59:13.174Z,9.42
2022-11-15T06:00:13.072Z,9.41
2022-11-15T06:01:13.093Z,9.41
2022-11-15T06:02:13.081Z,9.41
2022-11-15T06:03:13.134Z,9.40
2022-11-15T06:04:13.014Z,9.40
2022-11-15T06:05:13.047Z,9.40
2022-11-15T06:06:16.376Z,9.41
2022-11-15T06:07:13.052Z,9.42
2022-11-15T06:08:12.961Z,9.42
2022-11-15T06:09:12.999Z,9.42
2022-11-15T06:10:12.928Z,9.42
2022-11-15T06:11:12.872Z,9.42
2022-11-15T06:12:12.899Z,9.41
2022-11-15T06:13:12.848Z,9.42
2022-11-15T06:14:12.838Z,9.42
2022-11-15T06:15:12.820Z,9.40
2022-11-15T06:16:12.794Z,9.41
2022-11-15T06:17:12.949Z,9.42
2022-11-15T06:18:12.821Z,9.40
2022-11-15T06:19:12.853Z,9.40
2022-11-15T06:20:12.743Z,9.41
2022-11-15T06:21:12.736Z,9.40
2022-11-15T06:22:12.743Z,9.40
2022-11-15T06:23:12.717Z,9.40
2022-11-15T06:24:12.686Z,9.41
2022-11-15T06:25:12.678Z,9.40
2022-11-15T06:26:12.687Z,9.41
2022-11-15T06:27:12.662Z,9.41
2022-11-15T06:28:12.765Z,9.42
2022-11-15T06:29:12.637Z,9.41
2022-11-15T06:30:12.610Z,9.41
2022-11-15T06:31:12.611Z,9.41
2022-11-15T06:32:12.578Z,9.44
2022-11-15T06:33:12.642Z,9.44
2022-11-15T06:34:12.550Z,9.42
2022-11-15T06:35:12.550Z,9.41
2022-11-15T06:36:17.312Z,9.41
2022-11-15T06:37:12.555Z,9.42
2022-11-15T06:38:12.526Z,9.42
2022-11-15T06:39:12.513Z,9.42
2022-11-15T06:40:12.496Z,9.40
2022-11-15T06:41:12.470Z,9.42
2022-11-15T06:42:12.445Z,9.44
2022-11-15T06:43:12.465Z,9.41
2022-11-15T06:44:12.465Z,9.41
2022-11-15T06:45:12.414Z,9.42
2022-11-15T06:46:12.385Z,9.40
2022-11-15T06:47:12.486Z,9.40
2022-11-15T06:48:12.376Z,9.40
2022-11-15T06:49:12.392Z,9.37
2022-11-15T06:50:12.394Z,9.40
2022-11-15T06:51:12.335Z,9.40
2022-11-15T06:52:12.306Z,9.37
2022-11-15T06:53:12.329Z,9.41
2022-11-15T06:54:12.342Z,9.37
2022-11-15T06:55:12.312Z,9.40
2022-11-15T06:56:12.253Z,9.41
2022-11-15T06:57:12.273Z,9.40
2022-11-15T06:58:12.228Z,9.40
2022-11-15T06:59:12.232Z,9.41
2022-11-15T07:00:12.255Z,9.37
2022-11-15T07:01:12.330Z,9.40
2022-11-15T07:02:12.189Z,9.41
2022-11-15T07:03:12.202Z,9.40
2022-11-15T07:04:12.160Z,9.41
2022-11-15T07:05:12.198Z,9.41
2022-11-15T07:06:12.127Z,9.40
2022-11-15T07:07:12.173Z,9.40
2022-11-15T07:08:12.092Z,9.42
2022-11-15T07:09:12.092Z,9.41
2022-11-15T07:10:12.111Z,9.42
2022-11-15T07:11:12.065Z,9.41
2022-11-15T07:12:12.050Z,9.40
2022-11-15T07:13:12.085Z,9.41
2022-11-15T07:14:12.038Z,9.41
2022-11-15T07:15:12.034Z,9.42
2022-11-15T07:16:12.044Z,9.42
2022-11-15T07:17:11.992Z,9.40
2022-11-15T07:18:11.967Z,9.40
2022-11-15T07:19:11.967Z,9.40
2022-11-15T07:20:11.972Z,9.40
2022-11-15T07:21:11.970Z,9.37
2022-11-15T07:22:11.914Z,9.37
2022-11-15T07:23:11.935Z,9.40
2022-11-15T07:24:11.884Z,9.40
2022-11-15T07:25:11.916Z,9.41
2022-11-15T07:26:11.967Z,9.40
2022-11-15T07:27:11.882Z,9.41
2022-11-15T07:28:11.868Z,9.40
2022-11-15T07:29:11.831Z,9.42
2022-11-15T07:30:14.453Z,9.42
2022-11-15T07:31:11.801Z,9.44
2022-11-15T07:32:11.840Z,9.44
2022-11-15T07:33:11.803Z,9.45
2022-11-15T07:34:11.747Z,9.45
2022-11-15T07:35:11.748Z,9.45
2022-11-15T07:36:11.730Z,9.48
2022-11-15T07:37:11.815Z,9.47
2022-11-15T07:38:11.709Z,9.50
2022-11-15T07:39:11.734Z,9.48
2022-11-15T07:40:11.673Z,9.50
2022-11-15T07:41:11.820Z,9.51
2022-11-15T07:42:11.703Z,9.50
2022-11-15T07:43:11.674Z,9.52
2022-11-15T07:44:11.649Z,9.52
2022-11-15T07:45:11.631Z,9.51
2022-11-15T07:46:11.591Z,9.54
2022-11-15T07:47:11.598Z,9.51
2022-11-15T07:48:11.590Z,9.52
2022-11-15T07:49:11.567Z,9.54
2022-11-15T07:50:11.534Z,9.57
2022-11-15T07:51:14.198Z,9.55
2022-11-15T07:52:11.530Z,9.57
2022-11-15T07:53:11.544Z,9.55
2022-11-15T07:54:11.495Z,9.57
2022-11-15T07:55:11.492Z,9.55
2022-11-15T07:56:11.463Z,9.59
2022-11-15T07:57:11.483Z,9.59
2022-11-15T07:58:11.461Z,9.59
2022-11-15T07:59:11.456Z,9.62
2022-11-15T08:00:11.404Z,9.62
2022-11-15T08:01:11.650Z,9.63
2022-11-15T08:02:11.490Z,9.63
2022-11-15T08:03:11.415Z,9.65
2022-11-15T08:04:11.421Z,9.67
2022-11-15T08:05:11.384Z,9.67
2022-11-15T08:06:11.357Z,9.69
2022-11-15T08:07:11.388Z,9.69
2022-11-15T08:08:11.372Z,9.70
2022-11-15T08:09:11.331Z,9.73
2022-11-15T08:10:11.311Z,9.75
2022-11-15T08:11:11.326Z,9.78
2022-11-15T08:12:11.245Z,9.80
2022-11-15T08:13:11.280Z,9.80
2022-11-15T08:14:11.235Z,9.81
2022-11-15T08:15:11.266Z,9.81
2022-11-15T08:16:11.192Z,9.81
2022-11-15T08:17:11.278Z,9.84
2022-11-15T08:18:11.200Z,9.87
2022-11-15T08:19:11.207Z,9.87
2022-11-15T08:20:11.169Z,9.85
2022-11-15T08:21:15.602Z,9.84
2022-11-15T08:22:11.118Z,9.87
2022-11-15T08:23:11.111Z,9.85
2022-11-15T08:24:11.143Z,9.87
2022-11-15T08:25:11.163Z,9.87
2022-11-15T08:26:11.062Z,9.93
2022-11-15T08:27:11.165Z,9.93
2022-11-15T08:28:11.083Z,9.91
2022-11-15T08:29:11.032Z,9.90
2022-11-15T08:30:11.063Z,9.90
2022-11-15T08:31:11.037Z,9.91
2022-11-15T08:32:10.978Z,9.96
2022-11-15T08:33:11.015Z,9.96
2022-11-15T08:34:10.954Z,9.96
2022-11-15T08:35:10.958Z,9.94
2022-11-15T08:36:10.989Z,9.96
2022-11-15T08:37:10.926Z,9.94
2022-11-15T08:38:10.894Z,10.01
2022-11-15T08:39:10.927Z,10.01
2022-11-15T08:40:10.896Z,10.02
2022-11-15T08:41:10.907Z,10.05
2022-11-15T08:42:13.548Z,10.05
2022-11-15T08:43:10.844Z,10.06
2022-11-15T08:44:10.816Z,10.09
2022-11-15T08:45:10.853Z,10.12
2022-11-15T08:46:10.786Z,10.12
2022-11-15T08:47:10.819Z,10.14
2022-11-15T08:48:10.905Z,10.17
2022-11-15T08:49:10.792Z,10.20
2022-11-15T08:50:10.761Z,10.20
2022-11-15T08:51:10.741Z,10.21
2022-11-15T08:52:10.807Z,10.26
2022-11-15T08:53:10.712Z,10.30
2022-11-15T08:54:10.689Z,10.35
2022-11-15T08:55:10.696Z,10.35
2022-11-15T08:56:10.665Z,10.38
2022-11-15T08:57:10.668Z,10.38
2022-11-15T08:58:10.702Z,10.38
2022-11-15T08:59:10.632Z,10.41
2022-11-15T09:00:10.622Z,10.39
2022-11-15T09:01:12.862Z,10.46
2022-11-15T09:02:10.611Z,10.52
2022-11-15T09:03:10.601Z,10.52
2022-11-15T09:04:10.583Z,10.57
2022-11-15T09:05:10.549Z,10.55
2022-11-15T09:06:10.541Z,10.58
2022-11-15T09:07:10.594Z,10.58
2022-11-15T09:08:32.804Z,10.57
2022-11-15T09:09:10.523Z,10.55
2022-11-15T09:10:10.510Z,10.52
2022-11-15T09:11:10.458Z,10.46
2022-11-15T09:12:10.475Z,10.49
2022-11-15T09:13:10.464Z,10.54
2022-11-15T09:14:10.483Z,10.48
2022-11-15T09:15:10.491Z,10.48
2022-11-15T09:16:10.444Z,10.45
2022-11-15T09:17:10.398Z,10.46
2022-11-15T09:18:10.384Z,10.49
2022-11-15T09:19:11.854Z,10.49
2022-11-15T09:20:10.397Z,10.57
2022-11-15T09:21:10.331Z,10.61
2022-11-15T09:22:10.368Z,10.62
2022-11-15T09:23:10.303Z,10.68
2022-11-15T09:24:10.297Z,10.72
2022-11-15T09:25:11.349Z,10.75
2022-11-15T09:26:10.301Z,10.76
2022-11-15T09:27:10.273Z,10.78
2022-11-15T09:28:19.244Z,10.80
2022-11-15T09:29:10.212Z,10.87
2022-11-15T09:30:10.217Z,10.93
2022-11-15T09:31:10.214Z,10.90
2022-11-15T09:32:10.186Z,10.97
2022-11-15T09:33:10.184Z,10.97
2022-11-15T09:34:10.174Z,11.01
2022-11-15T09:35:10.141Z,11.04
2022-11-15T09:36:10.184Z,11.04
2022-11-15T09:37:10.158Z,11.05
2022-11-15T09:38:10.114Z,11.09
2022-11-15T09:39:10.089Z,11.09
2022-11-15T09:40:10.081Z,11.08
2022-11-15T09:41:10.058Z,11.05
2022-11-15T09:42:10.086Z,11.11
2022-11-15T09:43:10.029Z,11.15
2022-11-15T09:44:10.031Z,11.16
2022-11-15T09:45:10.018Z,11.22
2022-11-15T09:46:10.009Z,11.20
2022-11-15T09:47:10.023Z,11.15
2022-11-15T09:48:09.984Z,11.15
2022-11-15T09:49:10.022Z,11.22
2022-11-15T09:50:09.957Z,11.28
2022-11-15T09:51:09.919Z,11.33
2022-11-15T09:52:09.927Z,11.41
2022-11-15T09:53:09.924Z,11.38
2022-11-15T09:55:09.877Z,11.43
2022-11-15T09:56:09.871Z,11.41
2022-11-15T09:57:15.749Z,11.34
2022-11-15T09:58:09.880Z,11.37
2022-11-15T09:59:09.820Z,11.38
2022-11-15T10:00:43.887Z,11.40
2022-11-15T10:01:09.828Z,11.46
2022-11-15T10:02:09.789Z,11.49
2022-11-15T10:03:09.768Z,11.49
2022-11-15T10:04:11.910Z,11.49
2022-11-15T10:05:09.786Z,11.49
2022-11-15T10:06:09.741Z,11.51
2022-11-15T10:07:09.735Z,11.51
2022-11-15T10:08:09.710Z,11.52
2022-11-15T10:09:09.709Z,11.49
2022-11-15T10:10:09.746Z,11.48
2022-11-15T10:12:09.667Z,11.55
2022-11-15T10:13:09.640Z,11.58
2022-11-15T10:14:09.628Z,11.62
2022-11-15T10:15:09.651Z,11.56
2022-11-15T10:16:09.604Z,11.59
2022-11-15T10:17:09.577Z,11.67
2022-11-15T10:18:09.578Z,11.70
2022-11-15T10:19:09.551Z,11.69
2022-11-15T10:20:09.590Z,11.73
2022-11-15T10:21:09.550Z,11.84
2022-11-15T10:22:09.522Z,11.95
2022-11-15T10:23:09.502Z,11.99
2022-11-15T10:24:09.513Z,11.97
2022-11-15T10:25:09.464Z,12.03
2022-11-15T10:26:09.523Z,12.00
2022-11-15T10:27:09.449Z,11.96
2022-11-15T10:28:09.467Z,11.99
2022-11-15T10:29:09.417Z,11.91
2022-11-15T10:30:09.416Z,11.87
2022-11-15T10:31:13.044Z,11.82
2022-11-15T10:32:09.391Z,11.82
2022-11-15T10:33:09.421Z,11.87
2022-11-15T10:34:09.363Z,11.87
2022-11-15T10:35:09.433Z,11.96
2022-11-15T10:36:09.415Z,12.00
2022-11-15T10:37:09.305Z,12.05
2022-11-15T10:38:09.316Z,12.08
2022-11-15T10:39:09.282Z,12.17
2022-11-15T10:40:09.285Z,12.26
2022-11-15T10:41:09.263Z,12.30
2022-11-15T10:42:12.870Z,12.32
2022-11-15T10:43:09.257Z,12.36
2022-11-15T10:44:09.236Z,12.36
2022-11-15T10:45:09.205Z,12.38
2022-11-15T10:46:31.500Z,12.43
2022-11-15T10:47:09.228Z,12.41
2022-11-15T10:48:09.194Z,12.43
2022-11-15T10:49:09.149Z,12.40
2022-11-15T10:50:09.163Z,12.32
2022-11-15T10:51:09.120Z,12.23
2022-11-15T10:52:09.122Z,12.21
2022-11-15T10:53:09.146Z,12.17
2022-11-15T10:54:12.337Z,12.15
2022-11-15T10:55:09.080Z,12.11
2022-11-15T10:56:09.068Z,12.08
2022-11-15T10:57:09.043Z,12.03
2022-11-15T10:58:09.079Z,12.05
2022-11-15T10:59:09.016Z,11.99
2022-11-15T11:00:09.020Z,11.95
2022-11-15T11:01:09.029Z,11.87
2022-11-15T11:02:09.000Z,11.84
2022-11-15T11:03:08.969Z,11.80
2022-11-15T11:04:08.991Z,11.76
2022-11-15T11:05:08.966Z,11.76
2022-11-15T11:06:08.936Z,11.77
2022-11-15T11:07:08.935Z,11.82
2022-11-15T11:08:08.909Z,11.89
2022-11-15T11:09:08.916Z,11.91
2022-11-15T11:10:28.885Z,11.84
2022-11-15T11:11:08.869Z,11.87
2022-11-15T11:12:08.860Z,11.85
2022-11-15T11:13:08.835Z,11.82
2022-11-15T11:14:08.832Z,11.87
2022-11-15T11:15:08.902Z,11.87
2022-11-15T11:16:08.801Z,11.91
2022-11-15T11:17:08.847Z,11.93
2022-11-15T11:18:08.813Z,11.96
2022-11-15T11:19:08.774Z,11.96
2022-11-15T11:20:08.782Z,11.99
2022-11-15T11:21:08.719Z,12.05
2022-11-15T11:22:08.785Z,12.07
2022-11-15T11:23:08.733Z,12.08
2022-11-15T11:24:08.784Z,12.17
2022-11-15T11:25:08.674Z,12.15
2022-11-15T11:26:08.719Z,12.21
2022-11-15T11:27:08.659Z,12.23
2022-11-15T11:28:08.644Z,12.23
2022-11-15T11:29:08.630Z,12.32
2022-11-15T11:30:08.620Z,12.30
2022-11-15T11:31:08.624Z,12.40
2022-11-15T11:32:08.588Z,12.44
2022-11-15T11:33:08.599Z,12.55
2022-11-15T11:34:08.562Z,12.62
2022-11-15T11:35:08.542Z,12.65
2022-11-15T11:36:08.587Z,12.77
2022-11-15T11:37:08.553Z,12.86
2022-11-15T11:38:08.505Z,12.71
2022-11-15T11:39:08.539Z,12.73
2022-11-15T11:40:10.880Z,12.79
2022-11-15T11:41:08.461Z,12.76
2022-11-15T11:42:08.554Z,12.79
2022-11-15T11:43:08.443Z,12.80
2022-11-15T11:44:08.434Z,12.86
2022-11-15T11:45:08.498Z,12.87
2022-11-15T11:46:08.407Z,12.90
2022-11-15T11:47:08.370Z,12.95
2022-11-15T11:48:08.442Z,12.91
2022-11-15T11:49:08.355Z,12.87
2022-11-15T11:50:08.355Z,12.91
2022-11-15T11:51:08.364Z,12.96
2022-11-15T11:52:08.330Z,12.96
2022-11-15T11:53:08.341Z,13.04
2022-11-15T11:54:08.359Z,13.05
2022-11-15T11:55:08.275Z,13.14
2022-11-15T11:56:08.269Z,13.14
2022-11-15T11:57:08.309Z,13.19
2022-11-15T11:58:08.245Z,13.13
2022-11-15T11:59:08.247Z,13.17
2022-11-15T12:00:08.273Z,13.17
2022-11-15T12:01:12.541Z,13.14
2022-11-15T12:02:08.371Z,13.11
2022-11-15T12:03:08.378Z,13.11
2022-11-15T12:04:08.229Z,13.14
2022-11-15T12:05:08.141Z,13.19
2022-11-15T12:06:08.139Z,13.20
2022-11-15T12:07:08.254Z,13.13
2022-11-15T12:08:08.113Z,13.11
2022-11-15T12:09:08.093Z,13.11
2022-11-15T12:10:08.189Z,13.02
2022-11-15T12:11:08.082Z,13.04
2022-11-15T12:12:08.052Z,13.02
2022-11-15T12:13:08.064Z,13.06
2022-11-15T12:14:08.044Z,13.11
2022-11-15T12:15:08.037Z,13.21
2022-11-15T12:16:10.452Z,13.21
2022-11-15T12:17:07.988Z,13.26
2022-11-15T12:18:07.981Z,13.24
2022-11-15T12:19:07.948Z,13.29
2022-11-15T12:20:07.976Z,13.26
2022-11-15T12:21:07.957Z,13.26
2022-11-15T12:22:07.928Z,13.23
2022-11-15T12:23:07.899Z,13.21
2022-11-15T12:24:08.016Z,13.20
2022-11-15T12:25:07.872Z,13.16
2022-11-15T12:26:07.897Z,13.16
2022-11-15T12:27:07.867Z,13.06
2022-11-15T12:28:07.842Z,13.08
2022-11-15T12:29:09.131Z,13.08
2022-11-15T12:30:07.872Z,13.06
2022-11-15T12:31:07.800Z,13.08
2022-11-15T12:32:07.816Z,13.08
2022-11-15T12:33:07.801Z,13.05
2022-11-15T12:34:07.768Z,13.04
2022-11-15T12:35:07.758Z,13.05
2022-11-15T12:36:07.737Z,13.09
2022-11-15T12:37:07.843Z,13.11
2022-11-15T12:38:07.710Z,13.13
2022-11-15T12:39:07.693Z,13.09
2022-11-15T12:40:07.719Z,13.13
2022-11-15T12:41:07.659Z,13.21
2022-11-15T12:42:07.673Z,13.24
2022-11-15T12:43:07.664Z,13.26
2022-11-15T12:44:07.641Z,13.27
2022-11-15T12:45:07.605Z,13.32
2022-11-15T12:46:07.605Z,13.36
2022-11-15T12:47:07.584Z,13.32
2022-11-15T12:48:07.611Z,13.32
2022-11-15T12:49:07.557Z,13.32
2022-11-15T12:50:07.628Z,13.29
2022-11-15T12:51:07.527Z,13.35
2022-11-15T12:52:07.522Z,13.35
2022-11-15T12:53:07.500Z,13.32
2022-11-15T12:54:07.545Z,13.32
2022-11-15T12:55:07.469Z,13.39
2022-11-15T12:56:07.469Z,13.38
2022-11-15T12:57:07.521Z,13.40
2022-11-15T12:58:07.442Z,13.38
2022-11-15T12:59:07.457Z,13.38
2022-11-15T13:00:07.421Z,13.42
2022-11-15T13:01:07.503Z,13.40
2022-11-15T13:02:07.395Z,13.39
2022-11-15T13:03:07.369Z,13.40
2022-11-15T13:04:07.399Z,13.42
2022-11-15T13:05:07.395Z,13.49
2022-11-15T13:06:07.344Z,13.53
2022-11-15T13:07:07.329Z,13.54